createdAt,value
2017-12-21T00:01:16.810Z,19.37
2017-12-21T00:03:44.241Z,18.20
2017-12-21T00:06:12.433Z,18.20
2017-12-21T00:08:39.863Z,16.77
2017-12-21T00:11:08.056Z,18.83
2017-12-21T00:13:35.488Z,18.37
2017-12-21T00:16:02.916Z,18.83
2017-12-21T00:18:30.356Z,16.90
2017-12-21T00:20:57.803Z,19.47
2017-12-21T00:23:25.233Z,18.10
2017-12-21T00:25:53.423Z,18.40
2017-12-21T00:28:20.852Z,16.33
2017-12-21T00:30:49.043Z,18.00
2017-12-21T00:33:16.475Z,18.93
2017-12-21T00:35:43.927Z,18.37
2017-12-21T00:38:11.364Z,18.70
2017-12-21T00:40:38.795Z,20.63
2017-12-21T00:43:06.263Z,18.33
2017-12-21T00:45:33.695Z,18.10
2017-12-21T00:48:01.116Z,19.23
2017-12-21T00:50:28.551Z,17.73
2017-12-21T00:52:55.985Z,17.67
2017-12-21T00:55:23.427Z,19.07
2017-12-21T00:57:50.848Z,18.53
2017-12-21T01:00:19.044Z,19.73
2017-12-21T01:02:46.468Z,19.10
2017-12-21T01:05:13.904Z,16.93
2017-12-21T01:07:41.329Z,18.07
2017-12-21T01:10:08.755Z,20.47
2017-12-21T01:12:36.951Z,18.00
2017-12-21T01:15:04.381Z,18.70
2017-12-21T01:17:32.588Z,17.80
2017-12-21T01:20:00.024Z,18.03
2017-12-21T01:22:28.213Z,19.40
2017-12-21T01:24:55.640Z,18.63
2017-12-21T01:27:23.070Z,19.83
2017-12-21T01:29:50.499Z,19.90
2017-12-21T01:32:17.925Z,20.50
2017-12-21T01:34:46.165Z,20.17
2017-12-21T01:37:13.598Z,19.77
2017-12-21T01:39:41.024Z,20.90
2017-12-21T01:42:08.456Z,19.17
2017-12-21T01:44:36.652Z,20.47
2017-12-21T01:47:05.665Z,19.17
2017-12-21T01:49:33.096Z,19.67
2017-12-21T01:52:01.295Z,22.27
2017-12-21T01:54:28.720Z,20.73
2017-12-21T01:56:56.916Z,21.63
2017-12-21T01:59:24.344Z,22.80
2017-12-21T02:01:52.544Z,22.03
2017-12-21T02:04:19.971Z,22.23
2017-12-21T02:06:47.408Z,21.23
2017-12-21T02:09:14.840Z,19.77
2017-12-21T02:11:42.271Z,18.43
2017-12-21T02:14:09.697Z,20.13
2017-12-21T02:16:38.071Z,20.30
2017-12-21T02:19:05.508Z,19.40
2017-12-21T02:21:32.937Z,21.70
2017-12-21T02:24:00.364Z,19.10
2017-12-21T02:26:27.799Z,19.60
2017-12-21T02:28:55.218Z,20.13
2017-12-21T02:31:22.663Z,20.87
2017-12-21T02:33:50.086Z,17.80
2017-12-21T02:36:18.276Z,19.90
2017-12-21T02:38:45.707Z,18.97
2017-12-21T02:41:13.900Z,18.47
2017-12-21T02:43:42.099Z,19.80
2017-12-21T02:46:09.524Z,19.50
2017-12-21T02:48:37.732Z,20.37
2017-12-21T02:51:05.151Z,16.90
2017-12-21T02:53:33.363Z,17.97
2017-12-21T02:56:00.787Z,18.53
2017-12-21T02:58:28.993Z,19.10
2017-12-21T03:00:56.414Z,18.03
2017-12-21T03:03:24.710Z,20.87
2017-12-21T03:05:52.143Z,18.43
2017-12-21T03:08:20.336Z,20.03
2017-12-21T03:10:47.767Z,18.20
2017-12-21T03:13:15.187Z,21.80
2017-12-21T03:15:42.631Z,18.10
2017-12-21T03:18:10.049Z,19.07
2017-12-21T03:20:38.251Z,19.00
2017-12-21T03:23:05.669Z,19.50
2017-12-21T03:25:33.124Z,21.93
2017-12-21T03:28:00.547Z,20.83
2017-12-21T03:30:27.977Z,21.03
2017-12-21T03:32:55.403Z,20.80
2017-12-21T03:35:23.614Z,20.33
2017-12-21T03:37:51.032Z,18.53
2017-12-21T03:40:19.228Z,18.47
2017-12-21T03:42:46.651Z,18.50
2017-12-21T03:45:14.099Z,20.50
2017-12-21T03:47:41.523Z,21.90
2017-12-21T03:50:08.952Z,19.27
2017-12-21T03:52:36.384Z,20.43
2017-12-21T03:55:03.820Z,20.83
2017-12-21T03:57:31.252Z,20.97
2017-12-21T03:59:58.683Z,19.80
2017-12-21T04:02:27.130Z,20.03
2017-12-21T04:04:54.556Z,18.97
2017-12-21T04:07:21.985Z,20.57
2017-12-21T04:09:49.415Z,19.77
2017-12-21T04:12:17.613Z,18.33
2017-12-21T04:14:45.032Z,17.23
2017-12-21T04:17:12.467Z,17.73
2017-12-21T04:19:39.896Z,18.07
2017-12-21T04:22:07.339Z,17.93
2017-12-21T04:24:34.764Z,20.43
2017-12-21T04:27:02.205Z,17.57
2017-12-21T04:29:29.627Z,19.70
2017-12-21T04:31:57.052Z,18.27
2017-12-21T04:34:25.263Z,19.57
2017-12-21T04:36:52.679Z,17.63
2017-12-21T04:39:20.880Z,18.87
2017-12-21T04:41:48.296Z,23.00
2017-12-21T04:44:15.815Z,18.93
2017-12-21T04:46:43.223Z,17.90
2017-12-21T04:49:11.543Z,17.30
2017-12-21T04:51:39.684Z,18.13
2017-12-21T04:54:07.113Z,17.60
2017-12-21T04:56:34.535Z,16.40
2017-12-21T04:59:01.978Z,16.47
2017-12-21T05:01:29.410Z,17.77
2017-12-21T05:03:56.843Z,17.70
2017-12-21T05:06:24.263Z,17.20
2017-12-21T05:08:51.697Z,16.50
2017-12-21T05:11:19.120Z,16.50
2017-12-21T05:13:47.316Z,16.90
2017-12-21T05:16:14.760Z,18.80
2017-12-21T05:18:42.949Z,17.10
2017-12-21T05:21:10.384Z,17.30
2017-12-21T05:23:38.586Z,17.70
2017-12-21T05:26:06.024Z,17.70
2017-12-21T05:28:34.220Z,17.13
2017-12-21T05:31:01.657Z,17.03
2017-12-21T05:33:29.851Z,19.73
2017-12-21T05:35:57.284Z,18.33
2017-12-21T05:38:25.469Z,16.53
2017-12-21T05:40:52.905Z,16.90
2017-12-21T05:43:21.108Z,18.13
2017-12-21T05:45:48.536Z,15.80
2017-12-21T05:48:16.731Z,17.37
2017-12-21T05:50:44.167Z,17.40
2017-12-21T05:53:12.365Z,17.70
2017-12-21T05:55:39.800Z,16.90
2017-12-21T05:58:07.992Z,18.33
2017-12-21T06:00:35.470Z,18.00
2017-12-21T06:03:02.875Z,17.50
2017-12-21T06:05:30.303Z,18.63
2017-12-21T06:07:57.740Z,22.10
2017-12-21T06:10:25.159Z,24.57
2017-12-21T06:12:53.357Z,23.63
2017-12-21T06:15:20.791Z,23.03
2017-12-21T06:17:48.992Z,20.93
2017-12-21T06:20:16.430Z,21.40
2017-12-21T06:22:44.622Z,22.27
2017-12-21T06:25:12.111Z,22.20
2017-12-21T06:27:39.501Z,22.57
2017-12-21T06:30:06.957Z,20.87
2017-12-21T06:32:34.392Z,21.87
2017-12-21T06:35:01.836Z,21.10
2017-12-21T06:37:29.255Z,23.20
2017-12-21T06:39:56.687Z,23.70
2017-12-21T06:42:24.119Z,20.80
2017-12-21T06:44:51.552Z,23.50
2017-12-21T06:47:18.983Z,21.97
2017-12-21T06:49:46.409Z,20.60
2017-12-21T06:52:13.849Z,22.40
2017-12-21T06:54:41.287Z,22.43
2017-12-21T06:57:08.707Z,21.03
2017-12-21T06:59:36.148Z,20.17
2017-12-21T07:02:04.339Z,20.30
2017-12-21T07:04:32.848Z,19.37
2017-12-21T07:07:00.272Z,21.57
2017-12-21T07:09:28.477Z,20.20
2017-12-21T07:11:55.904Z,19.63
2017-12-21T07:14:24.109Z,20.67
2017-12-21T07:16:51.534Z,18.93
2017-12-21T07:19:19.754Z,21.10
2017-12-21T07:21:47.179Z,21.37
2017-12-21T07:24:14.608Z,23.07
2017-12-21T07:26:42.048Z,20.40
2017-12-21T07:29:09.480Z,21.43
2017-12-21T07:31:36.907Z,21.13
2017-12-21T07:34:04.339Z,21.27
2017-12-21T07:36:32.530Z,23.00
2017-12-21T07:39:00.017Z,22.00
2017-12-21T07:41:27.440Z,19.50
2017-12-21T07:43:55.632Z,23.17
2017-12-21T07:46:23.055Z,21.90
2017-12-21T07:48:50.475Z,20.90
2017-12-21T07:51:17.910Z,24.33
2017-12-21T07:53:45.350Z,22.03
2017-12-21T07:56:13.548Z,21.33
2017-12-21T07:58:40.984Z,22.87
2017-12-21T08:01:08.416Z,19.57
2017-12-21T08:03:36.612Z,21.03
2017-12-21T08:06:04.038Z,23.27
2017-12-21T08:08:31.472Z,23.00
2017-12-21T08:10:58.912Z,19.87
2017-12-21T08:13:26.340Z,20.70
2017-12-21T08:15:53.800Z,20.90
2017-12-21T08:18:21.223Z,22.33
2017-12-21T08:20:48.647Z,23.07
2017-12-21T08:23:16.076Z,22.23
2017-12-21T08:25:43.547Z,19.50
2017-12-21T08:28:10.983Z,21.00
2017-12-21T08:30:38.403Z,19.23
2017-12-21T08:33:05.844Z,20.10
2017-12-21T08:35:33.274Z,20.30
2017-12-21T08:38:00.703Z,19.27
2017-12-21T08:40:28.900Z,19.80
2017-12-21T08:42:56.339Z,18.80
2017-12-21T08:45:23.776Z,20.93
2017-12-21T08:47:51.972Z,17.93
2017-12-21T08:50:19.403Z,17.83
2017-12-21T08:52:47.600Z,18.37
2017-12-21T08:55:15.033Z,19.13
2017-12-21T08:57:42.463Z,18.77
2017-12-21T09:00:09.883Z,17.27
2017-12-21T09:02:37.315Z,17.97
2017-12-21T09:05:05.509Z,18.73
2017-12-21T09:07:32.939Z,18.57
2017-12-21T09:10:01.122Z,18.07
2017-12-21T09:12:29.331Z,19.33
2017-12-21T09:14:56.764Z,17.80
2017-12-21T09:17:24.236Z,18.00
2017-12-21T09:19:51.658Z,18.10
2017-12-21T09:22:19.843Z,16.90
2017-12-21T09:24:48.053Z,19.27
2017-12-21T09:27:15.471Z,17.23
2017-12-21T09:29:43.677Z,15.43
2017-12-21T09:32:11.100Z,16.63
2017-12-21T09:34:39.301Z,15.33
2017-12-21T09:37:06.724Z,15.80
2017-12-21T09:39:34.151Z,15.40
2017-12-21T09:42:01.583Z,17.20
2017-12-21T09:44:29.017Z,17.57
2017-12-21T09:46:56.461Z,16.40
2017-12-21T09:49:23.888Z,13.07
2017-12-21T09:51:51.315Z,16.00
2017-12-21T09:54:20.767Z,16.07
2017-12-21T09:56:48.191Z,15.03
2017-12-21T09:59:15.664Z,13.20
2017-12-21T10:01:43.095Z,18.93
2017-12-21T10:04:10.523Z,42.50
2017-12-21T10:06:37.951Z,40.97
2017-12-21T10:09:06.146Z,31.27
2017-12-21T10:11:34.336Z,20.63
2017-12-21T10:14:01.763Z,29.13
2017-12-21T10:16:29.967Z,26.70
2017-12-21T10:18:57.384Z,18.23
2017-12-21T10:21:24.822Z,19.30
2017-12-21T10:23:52.250Z,17.03
2017-12-21T10:26:19.685Z,19.40
2017-12-21T10:28:47.107Z,25.47
2017-12-21T10:31:14.543Z,15.07
2017-12-21T10:33:41.970Z,13.03
2017-12-21T10:36:09.467Z,11.93
2017-12-21T10:38:36.898Z,11.60
2017-12-21T10:41:04.342Z,12.73
2017-12-21T10:43:31.755Z,12.17
2017-12-21T10:46:01.928Z,13.00
2017-12-21T10:48:29.353Z,13.00
2017-12-21T10:50:56.775Z,13.60
2017-12-21T10:53:24.213Z,11.23
2017-12-21T10:55:51.642Z,12.27
2017-12-21T10:58:19.096Z,12.63
2017-12-21T11:00:47.259Z,11.60
2017-12-21T11:03:14.695Z,13.37
2017-12-21T11:05:42.896Z,13.87
2017-12-21T11:08:10.328Z,12.23
2017-12-21T11:10:38.523Z,12.67
2017-12-21T11:13:05.960Z,11.43
2017-12-21T11:15:34.148Z,13.00
2017-12-21T11:18:01.574Z,13.97
2017-12-21T11:20:29.013Z,12.47
2017-12-21T11:22:56.446Z,13.50
2017-12-21T11:25:23.880Z,12.50
2017-12-21T11:27:51.312Z,12.73
2017-12-21T11:30:18.740Z,14.80
2017-12-21T11:32:46.159Z,14.37
2017-12-21T11:35:13.594Z,13.20
2017-12-21T11:37:41.809Z,15.00
2017-12-21T11:40:09.240Z,11.90
2017-12-21T11:42:36.664Z,12.57
2017-12-21T11:45:04.096Z,14.17
2017-12-21T11:47:31.532Z,15.60
2017-12-21T11:49:58.946Z,14.07
2017-12-21T11:52:27.207Z,11.77
2017-12-21T11:54:54.654Z,14.60
2017-12-21T11:57:22.712Z,13.80
2017-12-21T11:59:50.148Z,14.53
2017-12-21T12:02:17.654Z,12.60
2017-12-21T12:04:45.067Z,13.23
2017-12-21T12:07:12.572Z,14.00
2017-12-21T12:09:40.046Z,14.23
2017-12-21T12:12:08.235Z,14.80
2017-12-21T12:14:35.657Z,15.10
2017-12-21T12:17:03.084Z,14.03
2017-12-21T12:19:31.382Z,13.80
2017-12-21T12:21:58.795Z,14.27
2017-12-21T12:24:26.243Z,14.10
2017-12-21T12:26:54.425Z,13.47
2017-12-21T12:29:21.843Z,15.73
2017-12-21T12:31:50.043Z,15.33
2017-12-21T12:34:17.472Z,14.77
2017-12-21T12:36:45.670Z,14.73
2017-12-21T12:39:13.216Z,14.27
2017-12-21T12:41:41.407Z,13.60
2017-12-21T12:44:08.833Z,14.10
2017-12-21T12:46:36.279Z,13.93
2017-12-21T12:49:03.707Z,12.77
2017-12-21T12:51:31.140Z,13.80
2017-12-21T12:53:58.580Z,12.10
2017-12-21T12:56:26.768Z,13.83
2017-12-21T12:58:54.199Z,13.53
2017-12-21T13:01:22.387Z,13.20
2017-12-21T13:03:50.592Z,14.17
2017-12-21T13:06:18.011Z,15.33
2017-12-21T13:08:46.344Z,15.00
2017-12-21T13:11:13.747Z,13.10
2017-12-21T13:13:41.951Z,13.70
2017-12-21T13:16:09.382Z,12.80
2017-12-21T13:18:37.615Z,12.63
2017-12-21T13:21:05.107Z,13.77
2017-12-21T13:23:33.309Z,13.53
2017-12-21T13:26:00.738Z,13.40
2017-12-21T13:28:28.968Z,13.13
2017-12-21T13:30:56.404Z,13.90
2017-12-21T13:33:23.863Z,13.80
2017-12-21T13:35:52.029Z,14.10
2017-12-21T13:38:19.447Z,14.23
2017-12-21T13:40:46.912Z,13.80
2017-12-21T13:43:15.117Z,16.17
2017-12-21T13:45:42.552Z,14.17
2017-12-21T13:48:10.756Z,15.53
2017-12-21T13:50:38.188Z,16.07
2017-12-21T13:53:06.386Z,17.27
2017-12-21T13:55:33.811Z,17.87
2017-12-21T13:58:02.004Z,16.80
2017-12-21T14:00:29.435Z,17.67
2017-12-21T14:02:57.626Z,16.67
2017-12-21T14:05:26.035Z,16.93
2017-12-21T14:07:53.541Z,16.20
2017-12-21T14:10:20.969Z,17.00
2017-12-21T14:12:48.407Z,17.43
2017-12-21T14:15:15.822Z,19.47
2017-12-21T14:17:44.033Z,17.50
2017-12-21T14:20:11.447Z,17.80
2017-12-21T14:22:39.647Z,18.47
2017-12-21T14:25:07.079Z,18.13
2017-12-21T14:27:34.524Z,20.33
2017-12-21T14:30:01.949Z,18.77
2017-12-21T14:32:29.376Z,17.10
2017-12-21T14:34:56.804Z,18.20
2017-12-21T14:37:24.277Z,18.13
2017-12-21T14:39:52.484Z,16.53
2017-12-21T14:42:20.648Z,17.30
2017-12-21T14:44:48.078Z,17.97
2017-12-21T14:47:16.273Z,17.53
2017-12-21T14:49:43.702Z,16.20
2017-12-21T14:52:11.177Z,18.50
2017-12-21T14:54:38.797Z,16.20
2017-12-21T14:57:06.247Z,17.27
2017-12-21T14:59:33.741Z,16.97
2017-12-21T15:02:01.933Z,15.30
2017-12-21T15:04:29.373Z,17.47
2017-12-21T15:06:57.564Z,18.60
2017-12-21T15:09:25.007Z,18.43
2017-12-21T15:11:53.200Z,16.20
2017-12-21T15:14:20.627Z,15.40
2017-12-21T15:16:48.832Z,18.53
2017-12-21T15:19:16.292Z,15.50
2017-12-21T15:21:43.719Z,16.10
2017-12-21T15:24:11.921Z,15.77
2017-12-21T15:26:39.352Z,15.90
2017-12-21T15:29:07.549Z,15.73
2017-12-21T15:31:35.028Z,15.27
2017-12-21T15:34:02.453Z,16.17
2017-12-21T15:36:30.649Z,14.93
2017-12-21T15:38:58.101Z,15.67
2017-12-21T15:41:25.527Z,14.30
2017-12-21T15:43:53.725Z,15.40
2017-12-21T15:46:21.283Z,17.57
2017-12-21T15:48:48.732Z,17.87
2017-12-21T15:51:17.160Z,15.37
2017-12-21T15:53:44.642Z,16.57
2017-12-21T15:56:12.077Z,17.30
2017-12-21T15:58:39.528Z,16.50
2017-12-21T16:01:07.001Z,17.20
2017-12-21T16:03:34.508Z,16.83
2017-12-21T16:06:01.933Z,17.27
2017-12-21T16:08:29.363Z,19.43
2017-12-21T16:10:56.785Z,21.30
2017-12-21T16:13:24.211Z,21.60
2017-12-21T16:15:52.412Z,20.23
2017-12-21T16:18:19.935Z,19.90
2017-12-21T16:20:47.452Z,20.53
2017-12-21T16:23:14.906Z,18.43
2017-12-21T16:25:42.367Z,16.57
2017-12-21T16:28:09.800Z,16.40
2017-12-21T16:30:37.218Z,16.03
2017-12-21T16:33:04.788Z,16.60
2017-12-21T16:35:32.235Z,16.23
2017-12-21T16:37:59.656Z,17.40
2017-12-21T16:40:27.095Z,18.00
2017-12-21T16:42:54.526Z,16.87
2017-12-21T16:45:23.008Z,19.10
2017-12-21T16:47:51.206Z,17.93
2017-12-21T16:50:18.634Z,18.70
2017-12-21T16:52:46.916Z,16.67
2017-12-21T16:55:15.111Z,18.27
2017-12-21T16:57:42.540Z,19.07
2017-12-21T17:00:10.829Z,18.40
2017-12-21T17:02:40.002Z,20.30
2017-12-21T17:05:07.427Z,22.20
2017-12-21T17:07:34.871Z,20.10
2017-12-21T17:10:02.314Z,21.23
2017-12-21T17:12:29.876Z,21.70
2017-12-21T17:14:57.295Z,20.07
2017-12-21T17:17:25.525Z,20.63
2017-12-21T17:19:52.942Z,22.77
2017-12-21T17:22:21.219Z,21.10
2017-12-21T17:24:49.413Z,21.57
2017-12-21T17:27:16.847Z,20.70
2017-12-21T17:29:45.042Z,21.17
2017-12-21T17:32:12.480Z,20.57
2017-12-21T17:34:40.672Z,21.50
2017-12-21T17:37:08.099Z,22.40
2017-12-21T17:39:36.958Z,23.50
2017-12-21T17:42:04.461Z,20.80
2017-12-21T17:44:32.656Z,23.10
2017-12-21T17:47:00.082Z,23.33
2017-12-21T17:49:27.495Z,21.30
2017-12-21T17:51:54.930Z,21.20
2017-12-21T17:54:22.346Z,23.47
2017-12-21T17:56:50.574Z,23.50
2017-12-21T17:59:17.999Z,23.70
2017-12-21T18:01:45.438Z,23.47
2017-12-21T18:04:12.871Z,22.80
2017-12-21T18:06:40.290Z,21.90
2017-12-21T18:09:07.720Z,21.97
2017-12-21T18:11:35.927Z,22.57
2017-12-21T18:14:03.354Z,21.20
2017-12-21T18:16:32.936Z,22.70
2017-12-21T18:19:00.371Z,20.37
2017-12-21T18:21:27.800Z,21.67
2017-12-21T18:23:55.232Z,21.93
2017-12-21T18:26:22.656Z,21.60
2017-12-21T18:28:50.079Z,25.67
2017-12-21T18:31:17.521Z,22.40
2017-12-21T18:33:44.941Z,22.30
2017-12-21T18:36:13.143Z,21.83
2017-12-21T18:38:40.575Z,23.10
2017-12-21T18:41:08.773Z,22.60
2017-12-21T18:43:36.195Z,22.40
2017-12-21T18:46:03.627Z,22.93
2017-12-21T18:48:31.068Z,24.70
2017-12-21T18:50:58.503Z,24.37
2017-12-21T18:53:25.933Z,23.03
2017-12-21T18:55:53.360Z,22.70
2017-12-21T18:58:20.789Z,23.67
2017-12-21T19:00:48.210Z,25.50
2017-12-21T19:03:16.402Z,23.67
2017-12-21T19:05:43.824Z,24.47
2017-12-21T19:08:11.271Z,25.30
2017-12-21T19:10:38.705Z,26.70
2017-12-21T19:13:06.131Z,25.30
2017-12-21T19:15:33.556Z,24.27
2017-12-21T19:18:00.978Z,24.80
2017-12-21T19:20:28.403Z,27.33
2017-12-21T19:22:55.824Z,24.10
2017-12-21T19:25:23.244Z,22.40
2017-12-21T19:27:50.687Z,24.70
2017-12-21T19:30:18.117Z,24.10
2017-12-21T19:32:46.305Z,25.37
2017-12-21T19:35:13.737Z,26.40
2017-12-21T19:37:41.935Z,25.53
2017-12-21T19:40:09.352Z,25.03
2017-12-21T19:42:36.780Z,22.10
2017-12-21T19:45:04.195Z,22.20
2017-12-21T19:47:31.646Z,24.07
2017-12-21T19:49:59.821Z,23.50
2017-12-21T19:52:28.029Z,22.40
2017-12-21T19:54:55.460Z,24.33
2017-12-21T19:57:22.888Z,24.00
2017-12-21T19:59:50.316Z,24.33
2017-12-21T20:02:17.750Z,26.17
2017-12-21T20:04:45.189Z,24.70
2017-12-21T20:07:12.615Z,25.27
2017-12-21T20:09:40.040Z,28.00
2017-12-21T20:12:07.463Z,24.17
2017-12-21T20:14:34.895Z,23.37
2017-12-21T20:17:03.092Z,24.50
2017-12-21T20:19:30.527Z,22.77
2017-12-21T20:21:58.715Z,20.63
2017-12-21T20:24:26.158Z,21.60
2017-12-21T20:26:54.352Z,23.53
2017-12-21T20:29:21.829Z,24.03
2017-12-21T20:31:49.258Z,23.27
2017-12-21T20:34:17.443Z,23.40
2017-12-21T20:36:44.939Z,22.93
2017-12-21T20:39:12.364Z,21.73
2017-12-21T20:41:39.795Z,21.80
2017-12-21T20:44:08.007Z,22.33
2017-12-21T20:46:35.427Z,21.47
2017-12-21T20:49:03.638Z,22.63
2017-12-21T20:51:31.102Z,24.23
2017-12-21T20:53:59.539Z,24.37
2017-12-21T20:56:27.727Z,23.57
2017-12-21T20:58:55.181Z,23.80
2017-12-21T21:01:23.363Z,22.03
2017-12-21T21:03:51.819Z,22.17
2017-12-21T21:06:20.145Z,21.80
2017-12-21T21:08:48.592Z,20.90
2017-12-21T21:11:16.844Z,22.80
2017-12-21T21:13:44.355Z,22.40
2017-12-21T21:16:11.786Z,24.33
2017-12-21T21:18:39.987Z,25.53
2017-12-21T21:21:07.412Z,25.47
2017-12-21T21:23:35.619Z,24.20
2017-12-21T21:26:03.043Z,25.47
2017-12-21T21:28:31.239Z,26.10
2017-12-21T21:30:58.658Z,25.03
2017-12-21T21:33:26.859Z,25.93
2017-12-21T21:35:54.286Z,25.87
2017-12-21T21:38:21.707Z,23.70
2017-12-21T21:40:49.140Z,23.60
2017-12-21T21:43:16.571Z,24.20
2017-12-21T21:45:44.807Z,26.40
2017-12-21T21:48:12.224Z,21.50
2017-12-21T21:50:39.648Z,22.57
2017-12-21T21:53:07.067Z,23.30
2017-12-21T21:55:34.494Z,23.90
2017-12-21T21:58:01.945Z,22.93
2017-12-21T22:00:29.375Z,24.00
2017-12-21T22:02:56.812Z,25.67
2017-12-21T22:05:24.247Z,24.47
2017-12-21T22:07:51.678Z,24.23
2017-12-21T22:10:19.108Z,21.90
2017-12-21T22:12:47.305Z,23.93
2017-12-21T22:15:14.728Z,22.80
2017-12-21T22:17:42.156Z,22.30
2017-12-21T22:20:09.597Z,23.97
2017-12-21T22:22:37.010Z,24.40
2017-12-21T22:25:05.212Z,21.10
2017-12-21T22:27:32.631Z,24.10
2017-12-21T22:30:00.068Z,24.13
2017-12-21T22:32:27.495Z,24.93
2017-12-21T22:34:54.931Z,24.77
2017-12-21T22:37:22.354Z,22.13
2017-12-21T22:39:49.783Z,22.60
2017-12-21T22:42:17.208Z,22.10
2017-12-21T22:44:44.640Z,20.40
2017-12-21T22:47:12.834Z,21.10
2017-12-21T22:49:40.272Z,24.13
2017-12-21T22:52:08.471Z,21.60
2017-12-21T22:54:35.895Z,22.10
2017-12-21T22:57:03.318Z,23.87
2017-12-21T22:59:30.744Z,22.23
2017-12-21T23:01:58.179Z,22.27
2017-12-21T23:04:26.362Z,22.20
2017-12-21T23:06:53.811Z,21.87
2017-12-21T23:09:22.007Z,23.20
2017-12-21T23:11:49.440Z,21.67
2017-12-21T23:14:17.628Z,20.10
2017-12-21T23:16:45.063Z,21.47
2017-12-21T23:19:13.260Z,19.50
2017-12-21T23:21:40.684Z,21.17
2017-12-21T23:24:08.107Z,20.73
2017-12-21T23:26:35.535Z,18.87
2017-12-21T23:29:02.964Z,21.20
2017-12-21T23:31:31.162Z,21.77
2017-12-21T23:33:58.574Z,20.37
2017-12-21T23:36:26.009Z,20.37
2017-12-21T23:38:53.431Z,19.60
2017-12-21T23:41:20.858Z,21.90
2017-12-21T23:43:48.278Z,21.97
2017-12-21T23:46:15.721Z,20.83
2017-12-21T23:48:43.148Z,20.93
2017-12-21T23:51:11.345Z,20.17
2017-12-21T23:53:38.796Z,20.57
2017-12-21T23:56:06.224Z,20.83
2017-12-21T23:58:34.420Z,20.07
